sensor_id;sensor_type;location;lat;lon;timestamp;P1;durP1;ratioP1;P2;durP2;ratioP2
74415;SDS011;62850;42.428;25.618;2023-04-24T00:01:37;10.75;;;3.85;;
74415;SDS011;62850;42.428;25.618;2023-04-24T00:04:04;9.82;;;4.00;;
74415;SDS011;62850;42.428;25.618;2023-04-24T00:06:31;12.85;;;4.55;;
74415;SDS011;62850;42.428;25.618;2023-04-24T00:09:02;13.57;;;4.93;;
74415;SDS011;62850;42.428;25.618;2023-04-24T00:11:28;13.07;;;4.70;;
74415;SDS011;62850;42.428;25.618;2023-04-24T00:13:55;10.90;;;3.95;;
74415;SDS011;62850;42.428;25.618;2023-04-24T00:16:21;9.35;;;4.13;;
74415;SDS011;62850;42.428;25.618;2023-04-24T00:18:47;6.10;;;3.50;;
74415;SDS011;62850;42.428;25.618;2023-04-24T00:21:13;9.20;;;4.20;;
74415;SDS011;62850;42.428;25.618;2023-04-24T00:23:41;7.40;;;3.67;;
74415;SDS011;62850;42.428;25.618;2023-04-24T00:26:06;8.65;;;4.68;;
74415;SDS011;62850;42.428;25.618;2023-04-24T00:28:31;8.52;;;4.07;;
74415;SDS011;62850;42.428;25.618;2023-04-24T00:30:57;9.23;;;4.13;;
74415;SDS011;62850;42.428;25.618;2023-04-24T00:33:22;8.50;;;4.10;;
74415;SDS011;62850;42.428;25.618;2023-04-24T00:35:48;8.68;;;3.97;;
74415;SDS011;62850;42.428;25.618;2023-04-24T00:38:13;10.13;;;4.40;;
74415;SDS011;62850;42.428;25.618;2023-04-24T00:40:39;9.45;;;4.97;;
74415;SDS011;62850;42.428;25.618;2023-04-24T00:43:04;9.32;;;4.40;;
74415;SDS011;62850;42.428;25.618;2023-04-24T00:45:30;8.32;;;4.30;;
74415;SDS011;62850;42.428;25.618;2023-04-24T00:47:56;8.82;;;4.35;;
74415;SDS011;62850;42.428;25.618;2023-04-24T00:50:21;9.85;;;4.10;;
74415;SDS011;62850;42.428;25.618;2023-04-24T00:52:48;9.05;;;4.05;;
74415;SDS011;62850;42.428;25.618;2023-04-24T00:55:14;8.70;;;3.92;;
74415;SDS011;62850;42.428;25.618;2023-04-24T00:57:40;6.93;;;3.80;;
74415;SDS011;62850;42.428;25.618;2023-04-24T01:00:06;8.95;;;4.18;;
74415;SDS011;62850;42.428;25.618;2023-04-24T01:02:35;11.10;;;4.35;;
74415;SDS011;62850;42.428;25.618;2023-04-24T01:05:01;7.65;;;4.32;;
74415;SDS011;62850;42.428;25.618;2023-04-24T01:07:28;7.10;;;4.10;;
74415;SDS011;62850;42.428;25.618;2023-04-24T01:09:54;10.25;;;4.30;;
74415;SDS011;62850;42.428;25.618;2023-04-24T01:12:19;11.45;;;4.60;;
74415;SDS011;62850;42.428;25.618;2023-04-24T01:14:45;9.18;;;3.92;;
74415;SDS011;62850;42.428;25.618;2023-04-24T01:17:11;11.23;;;4.25;;
74415;SDS011;62850;42.428;25.618;2023-04-24T01:19:36;7.70;;;3.90;;
74415;SDS011;62850;42.428;25.618;2023-04-24T01:22:02;10.15;;;4.80;;
74415;SDS011;62850;42.428;25.618;2023-04-24T01:24:28;7.80;;;3.83;;
74415;SDS011;62850;42.428;25.618;2023-04-24T01:26:54;7.10;;;3.97;;
74415;SDS011;62850;42.428;25.618;2023-04-24T01:29:20;9.05;;;4.10;;
74415;SDS011;62850;42.428;25.618;2023-04-24T01:31:46;11.52;;;4.30;;
74415;SDS011;62850;42.428;25.618;2023-04-24T01:34:12;8.02;;;4.30;;
74415;SDS011;62850;42.428;25.618;2023-04-24T01:36:37;6.75;;;3.88;;
74415;SDS011;62850;42.428;25.618;2023-04-24T01:39:04;8.65;;;4.13;;
74415;SDS011;62850;42.428;25.618;2023-04-24T01:41:29;6.28;;;3.97;;
74415;SDS011;62850;42.428;25.618;2023-04-24T01:43:55;9.82;;;4.00;;
74415;SDS011;62850;42.428;25.618;2023-04-24T01:46:22;8.90;;;3.83;;
74415;SDS011;62850;42.428;25.618;2023-04-24T01:48:49;9.65;;;4.00;;
74415;SDS011;62850;42.428;25.618;2023-04-24T01:51:14;9.15;;;3.95;;
74415;SDS011;62850;42.428;25.618;2023-04-24T01:53:40;10.35;;;4.13;;
74415;SDS011;62850;42.428;25.618;2023-04-24T01:56:05;10.18;;;4.22;;
74415;SDS011;62850;42.428;25.618;2023-04-24T01:58:31;8.57;;;3.92;;
74415;SDS011;62850;42.428;25.618;2023-04-24T02:00:57;7.38;;;4.00;;
74415;SDS011;62850;42.428;25.618;2023-04-24T02:03:24;9.02;;;4.30;;
74415;SDS011;62850;42.428;25.618;2023-04-24T02:05:50;9.20;;;4.28;;
74415;SDS011;62850;42.428;25.618;2023-04-24T02:08:16;9.18;;;4.57;;
74415;SDS011;62850;42.428;25.618;2023-04-24T02:10:41;6.45;;;4.30;;
74415;SDS011;62850;42.428;25.618;2023-04-24T02:13:06;9.43;;;4.10;;
74415;SDS011;62850;42.428;25.618;2023-04-24T02:15:32;8.23;;;4.38;;
74415;SDS011;62850;42.428;25.618;2023-04-24T02:17:57;8.20;;;4.07;;
74415;SDS011;62850;42.428;25.618;2023-04-24T02:20:23;10.05;;;4.57;;
74415;SDS011;62850;42.428;25.618;2023-04-24T02:22:49;12.70;;;4.70;;
74415;SDS011;62850;42.428;25.618;2023-04-24T02:25:14;8.00;;;3.90;;
74415;SDS011;62850;42.428;25.618;2023-04-24T02:27:39;8.98;;;4.13;;
74415;SDS011;62850;42.428;25.618;2023-04-24T02:30:05;11.50;;;4.47;;
74415;SDS011;62850;42.428;25.618;2023-04-24T02:32:32;10.15;;;4.03;;
74415;SDS011;62850;42.428;25.618;2023-04-24T02:34:58;11.40;;;4.32;;
74415;SDS011;62850;42.428;25.618;2023-04-24T02:37:24;6.65;;;4.35;;
74415;SDS011;62850;42.428;25.618;2023-04-24T02:39:50;8.80;;;4.25;;
74415;SDS011;62850;42.428;25.618;2023-04-24T02:42:17;11.18;;;4.45;;
74415;SDS011;62850;42.428;25.618;2023-04-24T02:44:42;9.40;;;4.40;;
74415;SDS011;62850;42.428;25.618;2023-04-24T02:47:07;13.18;;;4.93;;
74415;SDS011;62850;42.428;25.618;2023-04-24T02:49:33;10.35;;;5.18;;
74415;SDS011;62850;42.428;25.618;2023-04-24T02:51:59;8.77;;;4.50;;
74415;SDS011;62850;42.428;25.618;2023-04-24T02:54:24;9.38;;;4.43;;
74415;SDS011;62850;42.428;25.618;2023-04-24T02:56:50;10.35;;;4.25;;
74415;SDS011;62850;42.428;25.618;2023-04-24T02:59:15;10.00;;;4.30;;
74415;SDS011;62850;42.428;25.618;2023-04-24T03:01:41;9.93;;;4.90;;
74415;SDS011;62850;42.428;25.618;2023-04-24T03:04:06;9.00;;;4.35;;
74415;SDS011;62850;42.428;25.618;2023-04-24T03:06:31;9.02;;;4.68;;
74415;SDS011;62850;42.428;25.618;2023-04-24T03:08:57;8.50;;;4.28;;
74415;SDS011;62850;42.428;25.618;2023-04-24T03:11:23;9.95;;;4.70;;
74415;SDS011;62850;42.428;25.618;2023-04-24T03:13:48;11.20;;;4.82;;
74415;SDS011;62850;42.428;25.618;2023-04-24T03:16:14;10.70;;;4.55;;
74415;SDS011;62850;42.428;25.618;2023-04-24T03:18:39;10.57;;;5.18;;
74415;SDS011;62850;42.428;25.618;2023-04-24T03:21:05;10.52;;;4.47;;
74415;SDS011;62850;42.428;25.618;2023-04-24T03:23:30;10.27;;;4.57;;
74415;SDS011;62850;42.428;25.618;2023-04-24T03:25:56;11.88;;;4.75;;
74415;SDS011;62850;42.428;25.618;2023-04-24T03:28:21;8.43;;;4.47;;
74415;SDS011;62850;42.428;25.618;2023-04-24T03:30:47;10.48;;;4.75;;
74415;SDS011;62850;42.428;25.618;2023-04-24T03:33:12;12.75;;;5.05;;
74415;SDS011;62850;42.428;25.618;2023-04-24T03:35:38;7.00;;;4.00;;
74415;SDS011;62850;42.428;25.618;2023-04-24T03:38:03;10.27;;;5.72;;
74415;SDS011;62850;42.428;25.618;2023-04-24T03:40:31;9.20;;;4.57;;
74415;SDS011;62850;42.428;25.618;2023-04-24T03:42:58;16.08;;;4.80;;
74415;SDS011;62850;42.428;25.618;2023-04-24T03:45:24;10.82;;;4.55;;
74415;SDS011;62850;42.428;25.618;2023-04-24T03:47:49;11.15;;;5.00;;
74415;SDS011;62850;42.428;25.618;2023-04-24T03:50:15;9.50;;;4.30;;
74415;SDS011;62850;42.428;25.618;2023-04-24T03:52:40;9.93;;;4.65;;
74415;SDS011;62850;42.428;25.618;2023-04-24T03:55:06;10.45;;;5.25;;
74415;SDS011;62850;42.428;25.618;2023-04-24T03:57:32;14.23;;;4.95;;
74415;SDS011;62850;42.428;25.618;2023-04-24T03:59:57;12.20;;;5.60;;
74415;SDS011;62850;42.428;25.618;2023-04-24T04:02:23;11.18;;;4.93;;
74415;SDS011;62850;42.428;25.618;2023-04-24T04:04:48;18.80;;;5.57;;
74415;SDS011;62850;42.428;25.618;2023-04-24T04:07:14;11.93;;;5.05;;
74415;SDS011;62850;42.428;25.618;2023-04-24T04:09:39;10.05;;;5.07;;
74415;SDS011;62850;42.428;25.618;2023-04-24T04:12:05;13.68;;;5.20;;
74415;SDS011;62850;42.428;25.618;2023-04-24T04:14:30;12.20;;;4.57;;
74415;SDS011;62850;42.428;25.618;2023-04-24T04:16:56;18.95;;;5.03;;
74415;SDS011;62850;42.428;25.618;2023-04-24T04:19:21;11.18;;;5.20;;
74415;SDS011;62850;42.428;25.618;2023-04-24T04:21:47;11.48;;;5.65;;
74415;SDS011;62850;42.428;25.618;2023-04-24T04:24:17;12.43;;;5.40;;
74415;SDS011;62850;42.428;25.618;2023-04-24T04:26:42;10.32;;;5.10;;
74415;SDS011;62850;42.428;25.618;2023-04-24T04:29:11;15.40;;;6.68;;
74415;SDS011;62850;42.428;25.618;2023-04-24T04:31:37;11.75;;;5.63;;
74415;SDS011;62850;42.428;25.618;2023-04-24T04:34:02;14.35;;;6.10;;
74415;SDS011;62850;42.428;25.618;2023-04-24T04:36:28;12.05;;;5.88;;
74415;SDS011;62850;42.428;25.618;2023-04-24T04:38:54;11.88;;;6.20;;
74415;SDS011;62850;42.428;25.618;2023-04-24T04:41:19;13.35;;;6.30;;
74415;SDS011;62850;42.428;25.618;2023-04-24T04:43:45;21.02;;;6.88;;
74415;SDS011;62850;42.428;25.618;2023-04-24T04:46:11;14.02;;;5.18;;
74415;SDS011;62850;42.428;25.618;2023-04-24T04:48:37;10.00;;;6.20;;
74415;SDS011;62850;42.428;25.618;2023-04-24T04:51:03;18.17;;;6.80;;
74415;SDS011;62850;42.428;25.618;2023-04-24T04:53:28;13.10;;;7.55;;
74415;SDS011;62850;42.428;25.618;2023-04-24T04:55:54;33.83;;;8.95;;
74415;SDS011;62850;42.428;25.618;2023-04-24T04:58:19;19.00;;;8.15;;
74415;SDS011;62850;42.428;25.618;2023-04-24T05:00:45;29.40;;;9.73;;
74415;SDS011;62850;42.428;25.618;2023-04-24T05:03:11;24.20;;;9.23;;
74415;SDS011;62850;42.428;25.618;2023-04-24T05:05:36;26.15;;;10.38;;
74415;SDS011;62850;42.428;25.618;2023-04-24T05:08:05;20.73;;;9.13;;
74415;SDS011;62850;42.428;25.618;2023-04-24T05:10:34;18.33;;;9.20;;
74415;SDS011;62850;42.428;25.618;2023-04-24T05:12:59;20.60;;;8.77;;
74415;SDS011;62850;42.428;25.618;2023-04-24T05:15:26;17.23;;;9.00;;
74415;SDS011;62850;42.428;25.618;2023-04-24T05:17:51;23.85;;;10.35;;
74415;SDS011;62850;42.428;25.618;2023-04-24T05:20:17;32.00;;;11.95;;
74415;SDS011;62850;42.428;25.618;2023-04-24T05:22:42;33.40;;;11.65;;
74415;SDS011;62850;42.428;25.618;2023-04-24T05:25:08;32.58;;;12.35;;
74415;SDS011;62850;42.428;25.618;2023-04-24T05:27:33;32.63;;;13.23;;
74415;SDS011;62850;42.428;25.618;2023-04-24T05:29:59;35.58;;;12.30;;
74415;SDS011;62850;42.428;25.618;2023-04-24T05:32:24;30.90;;;11.55;;
74415;SDS011;62850;42.428;25.618;2023-04-24T05:34:52;31.63;;;13.82;;
74415;SDS011;62850;42.428;25.618;2023-04-24T05:37:17;117.40;;;18.65;;
74415;SDS011;62850;42.428;25.618;2023-04-24T05:39:43;41.05;;;13.68;;
74415;SDS011;62850;42.428;25.618;2023-04-24T05:42:08;29.25;;;13.18;;
74415;SDS011;62850;42.428;25.618;2023-04-24T05:44:34;29.08;;;12.15;;
74415;SDS011;62850;42.428;25.618;2023-04-24T05:46:59;22.50;;;10.80;;
74415;SDS011;62850;42.428;25.618;2023-04-24T05:49:25;20.58;;;11.15;;
74415;SDS011;62850;42.428;25.618;2023-04-24T05:51:51;19.83;;;9.65;;
74415;SDS011;62850;42.428;25.618;2023-04-24T05:54:16;17.63;;;9.70;;
74415;SDS011;62850;42.428;25.618;2023-04-24T05:56:41;17.00;;;9.15;;
74415;SDS011;62850;42.428;25.618;2023-04-24T05:59:07;17.48;;;7.70;;
74415;SDS011;62850;42.428;25.618;2023-04-24T06:01:33;19.05;;;8.35;;
74415;SDS011;62850;42.428;25.618;2023-04-24T06:03:59;14.70;;;6.72;;
74415;SDS011;62850;42.428;25.618;2023-04-24T06:06:24;18.35;;;7.68;;
74415;SDS011;62850;42.428;25.618;2023-04-24T06:08:50;14.35;;;8.23;;
74415;SDS011;62850;42.428;25.618;2023-04-24T06:11:16;14.05;;;8.70;;
74415;SDS011;62850;42.428;25.618;2023-04-24T06:13:42;16.50;;;8.80;;
74415;SDS011;62850;42.428;25.618;2023-04-24T06:16:07;21.88;;;8.38;;
74415;SDS011;62850;42.428;25.618;2023-04-24T06:18:32;15.10;;;8.00;;
74415;SDS011;62850;42.428;25.618;2023-04-24T06:20:58;12.02;;;7.45;;
74415;SDS011;62850;42.428;25.618;2023-04-24T06:23:24;12.45;;;7.07;;
74415;SDS011;62850;42.428;25.618;2023-04-24T06:25:50;11.35;;;6.22;;
74415;SDS011;62850;42.428;25.618;2023-04-24T06:28:16;14.75;;;6.20;;
74415;SDS011;62850;42.428;25.618;2023-04-24T06:30:41;10.80;;;6.28;;
74415;SDS011;62850;42.428;25.618;2023-04-24T06:33:08;12.90;;;6.78;;
74415;SDS011;62850;42.428;25.618;2023-04-24T06:35:33;10.68;;;5.53;;
74415;SDS011;62850;42.428;25.618;2023-04-24T06:37:59;12.63;;;5.35;;
74415;SDS011;62850;42.428;25.618;2023-04-24T06:40:24;12.48;;;5.75;;
74415;SDS011;62850;42.428;25.618;2023-04-24T06:42:50;9.70;;;5.85;;
74415;SDS011;62850;42.428;25.618;2023-04-24T06:45:15;14.38;;;5.68;;
74415;SDS011;62850;42.428;25.618;2023-04-24T06:47:41;13.77;;;6.03;;
74415;SDS011;62850;42.428;25.618;2023-04-24T06:50:07;12.00;;;4.53;;
74415;SDS011;62850;42.428;25.618;2023-04-24T06:52:32;10.70;;;5.28;;
74415;SDS011;62850;42.428;25.618;2023-04-24T06:55:03;13.05;;;5.32;;
74415;SDS011;62850;42.428;25.618;2023-04-24T06:57:29;10.93;;;5.18;;
74415;SDS011;62850;42.428;25.618;2023-04-24T06:59:56;14.02;;;5.85;;
74415;SDS011;62850;42.428;25.618;2023-04-24T07:02:22;11.35;;;5.85;;
74415;SDS011;62850;42.428;25.618;2023-04-24T07:04:48;13.65;;;5.80;;
74415;SDS011;62850;42.428;25.618;2023-04-24T07:07:13;13.70;;;6.20;;
74415;SDS011;62850;42.428;25.618;2023-04-24T07:09:39;12.60;;;6.20;;
74415;SDS011;62850;42.428;25.618;2023-04-24T07:12:10;12.63;;;5.20;;
74415;SDS011;62850;42.428;25.618;2023-04-24T07:14:39;11.13;;;4.88;;
74415;SDS011;62850;42.428;25.618;2023-04-24T07:17:05;8.93;;;4.75;;
74415;SDS011;62850;42.428;25.618;2023-04-24T07:19:31;10.85;;;5.40;;
74415;SDS011;62850;42.428;25.618;2023-04-24T07:21:58;10.52;;;5.47;;
74415;SDS011;62850;42.428;25.618;2023-04-24T07:24:26;11.65;;;5.03;;
74415;SDS011;62850;42.428;25.618;2023-04-24T07:26:52;9.05;;;4.40;;
74415;SDS011;62850;42.428;25.618;2023-04-24T07:29:19;10.50;;;4.97;;
74415;SDS011;62850;42.428;25.618;2023-04-24T07:31:45;11.40;;;5.13;;
74415;SDS011;62850;42.428;25.618;2023-04-24T07:34:10;12.45;;;5.10;;
74415;SDS011;62850;42.428;25.618;2023-04-24T07:36:36;11.60;;;4.93;;
74415;SDS011;62850;42.428;25.618;2023-04-24T07:39:03;8.07;;;4.32;;
74415;SDS011;62850;42.428;25.618;2023-04-24T07:41:29;15.98;;;6.63;;
74415;SDS011;62850;42.428;25.618;2023-04-24T07:43:54;13.52;;;4.78;;
74415;SDS011;62850;42.428;25.618;2023-04-24T07:46:20;11.52;;;4.30;;
74415;SDS011;62850;42.428;25.618;2023-04-24T07:48:46;7.32;;;3.85;;
74415;SDS011;62850;42.428;25.618;2023-04-24T07:51:13;10.15;;;4.20;;
74415;SDS011;62850;42.428;25.618;2023-04-24T07:53:39;10.65;;;4.28;;
74415;SDS011;62850;42.428;25.618;2023-04-24T07:56:05;6.00;;;3.40;;
74415;SDS011;62850;42.428;25.618;2023-04-24T07:58:30;11.30;;;4.20;;
74415;SDS011;62850;42.428;25.618;2023-04-24T08:00:56;8.43;;;3.95;;
74415;SDS011;62850;42.428;25.618;2023-04-24T08:03:21;11.32;;;4.25;;
74415;SDS011;62850;42.428;25.618;2023-04-24T08:05:47;10.32;;;5.53;;
74415;SDS011;62850;42.428;25.618;2023-04-24T08:08:12;8.30;;;4.18;;
74415;SDS011;62850;42.428;25.618;2023-04-24T08:10:38;12.20;;;3.85;;
74415;SDS011;62850;42.428;25.618;2023-04-24T08:13:04;9.80;;;4.30;;
74415;SDS011;62850;42.428;25.618;2023-04-24T08:15:30;10.48;;;4.80;;
74415;SDS011;62850;42.428;25.618;2023-04-24T08:17:55;11.77;;;4.60;;
74415;SDS011;62850;42.428;25.618;2023-04-24T08:20:22;9.88;;;5.05;;
74415;SDS011;62850;42.428;25.618;2023-04-24T08:22:47;11.50;;;5.20;;
74415;SDS011;62850;42.428;25.618;2023-04-24T08:25:13;9.27;;;4.70;;
74415;SDS011;62850;42.428;25.618;2023-04-24T08:27:39;8.52;;;4.72;;
74415;SDS011;62850;42.428;25.618;2023-04-24T08:30:05;12.95;;;5.10;;
74415;SDS011;62850;42.428;25.618;2023-04-24T08:32:31;12.88;;;5.43;;
74415;SDS011;62850;42.428;25.618;2023-04-24T08:34:57;10.35;;;5.60;;
74415;SDS011;62850;42.428;25.618;2023-04-24T08:37:25;13.50;;;5.20;;
74415;SDS011;62850;42.428;25.618;2023-04-24T08:39:51;12.07;;;5.47;;
74415;SDS011;62850;42.428;25.618;2023-04-24T08:42:17;11.40;;;4.93;;
74415;SDS011;62850;42.428;25.618;2023-04-24T08:44:44;10.23;;;5.25;;
74415;SDS011;62850;42.428;25.618;2023-04-24T08:47:10;13.73;;;5.40;;
74415;SDS011;62850;42.428;25.618;2023-04-24T08:49:36;8.90;;;4.45;;
74415;SDS011;62850;42.428;25.618;2023-04-24T08:52:02;10.02;;;5.22;;
74415;SDS011;62850;42.428;25.618;2023-04-24T08:54:28;9.65;;;4.57;;
74415;SDS011;62850;42.428;25.618;2023-04-24T08:56:55;10.18;;;5.05;;
74415;SDS011;62850;42.428;25.618;2023-04-24T08:59:27;12.68;;;5.30;;
74415;SDS011;62850;42.428;25.618;2023-04-24T09:01:53;8.82;;;4.65;;
74415;SDS011;62850;42.428;25.618;2023-04-24T09:04:20;10.27;;;5.60;;
74415;SDS011;62850;42.428;25.618;2023-04-24T09:06:47;9.50;;;4.95;;
74415;SDS011;62850;42.428;25.618;2023-04-24T09:09:14;9.45;;;5.78;;
74415;SDS011;62850;42.428;25.618;2023-04-24T09:11:41;10.88;;;5.90;;
74415;SDS011;62850;42.428;25.618;2023-04-24T09:14:07;9.30;;;5.07;;
74415;SDS011;62850;42.428;25.618;2023-04-24T09:16:34;8.88;;;5.63;;
74415;SDS011;62850;42.428;25.618;2023-04-24T09:19:00;12.57;;;5.60;;
74415;SDS011;62850;42.428;25.618;2023-04-24T09:21:30;11.55;;;5.20;;
74415;SDS011;62850;42.428;25.618;2023-04-24T09:23:58;11.45;;;5.93;;
74415;SDS011;62850;42.428;25.618;2023-04-24T09:26:25;12.05;;;5.88;;
74415;SDS011;62850;42.428;25.618;2023-04-24T09:31:21;8.27;;;5.63;;
74415;SDS011;62850;42.428;25.618;2023-04-24T09:33:57;10.98;;;5.60;;
74415;SDS011;62850;42.428;25.618;2023-04-24T09:36:36;11.63;;;6.28;;
74415;SDS011;62850;42.428;25.618;2023-04-24T09:39:04;15.57;;;7.88;;
74415;SDS011;62850;42.428;25.618;2023-04-24T09:41:52;10.55;;;5.45;;
74415;SDS011;62850;42.428;25.618;2023-04-24T09:44:22;10.85;;;5.45;;
74415;SDS011;62850;42.428;25.618;2023-04-24T09:46:52;12.88;;;5.22;;
74415;SDS011;62850;42.428;25.618;2023-04-24T09:49:26;11.23;;;5.47;;
74415;SDS011;62850;42.428;25.618;2023-04-24T09:52:05;7.15;;;4.80;;
74415;SDS011;62850;42.428;25.618;2023-04-24T09:56:58;13.20;;;5.22;;
74415;SDS011;62850;42.428;25.618;2023-04-24T09:59:25;9.98;;;4.03;;
74415;SDS011;62850;42.428;25.618;2023-04-24T10:01:50;11.48;;;4.97;;
74415;SDS011;62850;42.428;25.618;2023-04-24T10:09:16;9.02;;;4.07;;
74415;SDS011;62850;42.428;25.618;2023-04-24T10:11:44;9.40;;;4.95;;
74415;SDS011;62850;42.428;25.618;2023-04-24T10:14:19;10.32;;;4.88;;
74415;SDS011;62850;42.428;25.618;2023-04-24T10:16:46;8.27;;;4.80;;
74415;SDS011;62850;42.428;25.618;2023-04-24T10:19:12;10.55;;;4.82;;
74415;SDS011;62850;42.428;25.618;2023-04-24T10:21:42;11.90;;;5.30;;
74415;SDS011;62850;42.428;25.618;2023-04-24T10:26:41;8.10;;;4.57;;
74415;SDS011;62850;42.428;25.618;2023-04-24T10:29:07;9.80;;;4.45;;
74415;SDS011;62850;42.428;25.618;2023-04-24T10:31:37;8.30;;;4.90;;
74415;SDS011;62850;42.428;25.618;2023-04-24T10:34:04;7.78;;;4.40;;
74415;SDS011;62850;42.428;25.618;2023-04-24T10:36:30;8.40;;;5.10;;
74415;SDS011;62850;42.428;25.618;2023-04-24T10:38:58;10.85;;;4.65;;
74415;SDS011;62850;42.428;25.618;2023-04-24T10:41:26;6.85;;;4.47;;
74415;SDS011;62850;42.428;25.618;2023-04-24T10:46:29;7.38;;;4.68;;
74415;SDS011;62850;42.428;25.618;2023-04-24T10:48:55;7.45;;;4.45;;
74415;SDS011;62850;42.428;25.618;2023-04-24T10:51:25;8.55;;;4.45;;
74415;SDS011;62850;42.428;25.618;2023-04-24T10:56:53;9.25;;;4.80;;
74415;SDS011;62850;42.428;25.618;2023-04-24T10:59:39;8.00;;;4.40;;
74415;SDS011;62850;42.428;25.618;2023-04-24T11:02:04;8.55;;;5.50;;
74415;SDS011;62850;42.428;25.618;2023-04-24T11:04:33;9.55;;;4.60;;
74415;SDS011;62850;42.428;25.618;2023-04-24T11:07:00;8.05;;;4.97;;
74415;SDS011;62850;42.428;25.618;2023-04-24T11:09:34;9.88;;;5.22;;
74415;SDS011;62850;42.428;25.618;2023-04-24T11:12:11;8.00;;;4.63;;
74415;SDS011;62850;42.428;25.618;2023-04-24T11:17:32;10.18;;;4.45;;
74415;SDS011;62850;42.428;25.618;2023-04-24T11:20:05;8.93;;;5.03;;
74415;SDS011;62850;42.428;25.618;2023-04-24T11:22:33;6.93;;;4.43;;
74415;SDS011;62850;42.428;25.618;2023-04-24T11:25:05;9.43;;;4.93;;
74415;SDS011;62850;42.428;25.618;2023-04-24T11:27:32;12.25;;;4.50;;
74415;SDS011;62850;42.428;25.618;2023-04-24T11:30:04;7.18;;;4.07;;
74415;SDS011;62850;42.428;25.618;2023-04-24T11:35:21;7.50;;;3.97;;
74415;SDS011;62850;42.428;25.618;2023-04-24T11:37:50;9.40;;;4.50;;
74415;SDS011;62850;42.428;25.618;2023-04-24T11:40:18;10.10;;;4.70;;
74415;SDS011;62850;42.428;25.618;2023-04-24T11:42:46;8.15;;;4.30;;
74415;SDS011;62850;42.428;25.618;2023-04-24T11:45:16;8.40;;;4.28;;
74415;SDS011;62850;42.428;25.618;2023-04-24T11:47:52;8.20;;;4.43;;
74415;SDS011;62850;42.428;25.618;2023-04-24T11:50:21;11.32;;;4.47;;
74415;SDS011;62850;42.428;25.618;2023-04-24T11:52:48;10.57;;;5.03;;
74415;SDS011;62850;42.428;25.618;2023-04-24T11:57:42;8.35;;;5.03;;
74415;SDS011;62850;42.428;25.618;2023-04-24T12:00:18;12.38;;;5.13;;
74415;SDS011;62850;42.428;25.618;2023-04-24T12:02:45;11.35;;;5.20;;
74415;SDS011;62850;42.428;25.618;2023-04-24T12:07:50;7.53;;;4.55;;
74415;SDS011;62850;42.428;25.618;2023-04-24T12:10:20;11.00;;;4.80;;
74415;SDS011;62850;42.428;25.618;2023-04-24T12:12:47;11.48;;;5.18;;
74415;SDS011;62850;42.428;25.618;2023-04-24T12:15:15;10.52;;;5.50;;
74415;SDS011;62850;42.428;25.618;2023-04-24T12:17:41;7.35;;;4.68;;
74415;SDS011;62850;42.428;25.618;2023-04-24T12:20:07;9.05;;;5.00;;
74415;SDS011;62850;42.428;25.618;2023-04-24T12:22:47;8.15;;;4.80;;
74415;SDS011;62850;42.428;25.618;2023-04-24T12:25:18;6.97;;;4.00;;
74415;SDS011;62850;42.428;25.618;2023-04-24T12:27:46;8.30;;;4.30;;
74415;SDS011;62850;42.428;25.618;2023-04-24T12:30:18;9.90;;;4.88;;
74415;SDS011;62850;42.428;25.618;2023-04-24T12:32:44;9.52;;;4.60;;
74415;SDS011;62850;42.428;25.618;2023-04-24T12:35:11;8.60;;;4.93;;
74415;SDS011;62850;42.428;25.618;2023-04-24T12:37:37;9.43;;;5.13;;
74415;SDS011;62850;42.428;25.618;2023-04-24T12:40:08;7.32;;;5.07;;
74415;SDS011;62850;42.428;25.618;2023-04-24T12:45:07;8.00;;;5.03;;
74415;SDS011;62850;42.428;25.618;2023-04-24T12:47:33;6.95;;;4.63;;
74415;SDS011;62850;42.428;25.618;2023-04-24T12:50:00;5.75;;;4.15;;
74415;SDS011;62850;42.428;25.618;2023-04-24T12:52:26;6.53;;;4.25;;
74415;SDS011;62850;42.428;25.618;2023-04-24T12:54:53;8.88;;;4.68;;
74415;SDS011;62850;42.428;25.618;2023-04-24T12:57:20;7.13;;;4.22;;
74415;SDS011;62850;42.428;25.618;2023-04-24T12:59:46;7.03;;;4.13;;
74415;SDS011;62850;42.428;25.618;2023-04-24T13:02:11;9.50;;;4.60;;
74415;SDS011;62850;42.428;25.618;2023-04-24T13:04:37;7.40;;;4.55;;
74415;SDS011;62850;42.428;25.618;2023-04-24T13:07:03;9.55;;;4.85;;
74415;SDS011;62850;42.428;25.618;2023-04-24T13:09:28;10.20;;;4.18;;
74415;SDS011;62850;42.428;25.618;2023-04-24T13:11:54;8.40;;;4.10;;
74415;SDS011;62850;42.428;25.618;2023-04-24T13:14:21;6.32;;;4.30;;
74415;SDS011;62850;42.428;25.618;2023-04-24T13:16:47;9.73;;;4.60;;
74415;SDS011;62850;42.428;25.618;2023-04-24T13:19:13;7.50;;;3.92;;
74415;SDS011;62850;42.428;25.618;2023-04-24T13:21:38;8.00;;;4.20;;
74415;SDS011;62850;42.428;25.618;2023-04-24T13:24:04;7.32;;;4.35;;
74415;SDS011;62850;42.428;25.618;2023-04-24T13:26:30;6.95;;;3.85;;
74415;SDS011;62850;42.428;25.618;2023-04-24T13:28:56;7.93;;;4.10;;
74415;SDS011;62850;42.428;25.618;2023-04-24T13:31:21;6.25;;;4.53;;
74415;SDS011;62850;42.428;25.618;2023-04-24T13:33:47;7.90;;;4.03;;
74415;SDS011;62850;42.428;25.618;2023-04-24T13:36:13;7.28;;;4.50;;
74415;SDS011;62850;42.428;25.618;2023-04-24T13:38:38;6.05;;;3.80;;
74415;SDS011;62850;42.428;25.618;2023-04-24T13:41:04;6.05;;;3.88;;
74415;SDS011;62850;42.428;25.618;2023-04-24T13:43:30;11.75;;;4.25;;
74415;SDS011;62850;42.428;25.618;2023-04-24T13:45:55;7.05;;;3.92;;
74415;SDS011;62850;42.428;25.618;2023-04-24T13:48:21;8.88;;;3.80;;
74415;SDS011;62850;42.428;25.618;2023-04-24T13:50:46;9.32;;;4.00;;
74415;SDS011;62850;42.428;25.618;2023-04-24T13:53:13;6.82;;;4.03;;
74415;SDS011;62850;42.428;25.618;2023-04-24T13:55:39;7.05;;;4.20;;
74415;SDS011;62850;42.428;25.618;2023-04-24T13:58:05;9.93;;;4.50;;
74415;SDS011;62850;42.428;25.618;2023-04-24T14:00:31;8.27;;;4.32;;
74415;SDS011;62850;42.428;25.618;2023-04-24T14:02:57;8.02;;;4.00;;
74415;SDS011;62850;42.428;25.618;2023-04-24T14:05:22;11.73;;;5.53;;
74415;SDS011;62850;42.428;25.618;2023-04-24T14:07:48;10.25;;;4.53;;
74415;SDS011;62850;42.428;25.618;2023-04-24T14:10:14;10.00;;;4.05;;
74415;SDS011;62850;42.428;25.618;2023-04-24T14:12:39;7.50;;;4.20;;
74415;SDS011;62850;42.428;25.618;2023-04-24T14:15:05;7.03;;;4.22;;
74415;SDS011;62850;42.428;25.618;2023-04-24T14:17:31;7.38;;;3.88;;
74415;SDS011;62850;42.428;25.618;2023-04-24T14:19:56;8.05;;;4.05;;
74415;SDS011;62850;42.428;25.618;2023-04-24T14:22:24;8.20;;;4.30;;
74415;SDS011;62850;42.428;25.618;2023-04-24T14:24:50;8.65;;;4.15;;
74415;SDS011;62850;42.428;25.618;2023-04-24T14:27:15;12.23;;;4.40;;
74415;SDS011;62850;42.428;25.618;2023-04-24T14:29:41;8.20;;;4.07;;
74415;SDS011;62850;42.428;25.618;2023-04-24T14:32:06;7.70;;;4.07;;
74415;SDS011;62850;42.428;25.618;2023-04-24T14:34:33;9.63;;;4.22;;
74415;SDS011;62850;42.428;25.618;2023-04-24T14:36:59;8.57;;;3.80;;
74415;SDS011;62850;42.428;25.618;2023-04-24T14:39:25;6.97;;;4.30;;
74415;SDS011;62850;42.428;25.618;2023-04-24T14:41:50;6.38;;;4.40;;
74415;SDS011;62850;42.428;25.618;2023-04-24T14:44:16;9.27;;;4.65;;
74415;SDS011;62850;42.428;25.618;2023-04-24T14:46:42;10.52;;;4.80;;
74415;SDS011;62850;42.428;25.618;2023-04-24T14:49:07;9.75;;;4.88;;
74415;SDS011;62850;42.428;25.618;2023-04-24T14:51:35;9.60;;;4.50;;
74415;SDS011;62850;42.428;25.618;2023-04-24T14:54:01;9.50;;;4.57;;